AIRPORT METAR

METAR FOR LIPE
ADDS - METARS form results

(0112 UTC 13 July 2020)
Data provider http://aviationweather.gov/metar/data/
 
METAR text: LIPE 130050Z 20005KT CAVOK 17/13 Q1021
Conditions at: LIPE (BOLOGNA/BORGO (A, IT) observed 0050 UTC 13 July 2020
Temperature: 17.0°C (63°F)
Dewpoint: 13.0°C (55°F) [RH = 77%]
Pressure (altimeter): 30.15 inches Hg (1021.0 mb)
Winds: from the SSW (200 degrees) at 6 MPH (5 knots; 2.6 m/s)
Visibility: 6 or more miles (10+ km)
Ceiling: ceiling and visibility are OK
Clouds: unknown
Weather: no significant weather observed at this time

METAR text: LIPE 130020Z 19004KT CAVOK 17/13 Q1021
Conditions at: LIPE (BOLOGNA/BORGO (A, IT) observed 0020 UTC 13 July 2020
Temperature: 17.0°C (63°F)
Dewpoint: 13.0°C (55°F) [RH = 77%]
Pressure (altimeter): 30.15 inches Hg (1021.0 mb)
Winds: from the S (190 degrees) at 5 MPH (4 knots; 2.1 m/s)
Visibility: 6 or more miles (10+ km)
Ceiling: ceiling and visibility are OK
Clouds: unknown
Weather: no significant weather observed at this time

Forecast for: LIPE (BOLOGNA/BORGO (A, IT)
Text: TAF LIPE 122300Z 1300/1324 VRB05KT 9999 FEW030
Forecast period: 0000 to 0800 UTC 13 July 2020
Forecast type: FROM: standard forecast or significant change
Winds: variable direction winds at 6 MPH (5 knots; 2.6 m/s)
Visibility: 6 or more miles 10+ km)
Ceiling: at least 12,000 feet AGL
Clouds: few clouds at 3000 feet AGL
Weather: no significant weather forecast for this period
Text: BECMG 1308/1310 10010KT
Forecast period: 0800 to 2000 UTC 13 July 2020
Forecast type: BECOMING: Conditions expected to become as follows by 1000 UTC 13 July 2020
Winds: from the E (100 degrees) at 12 MPH (10 knots; 5.1 m/s)
Visibility: 6 or more miles 10+ km)
Ceiling: at least 12,000 feet AGL
Clouds: few clouds at 3000 feet AGL
Weather: no significant weather forecast for this period
Text: BECMG 1320/1322 VRB05KT
Forecast period: 2000 UTC 13 July 2020 to 0000 UTC 14 July 2020
Forecast type: BECOMING: Conditions expected to become as follows by 2200 UTC 13 July 2020
Winds: variable direction winds at 6 MPH (5 knots; 2.6 m/s)
Visibility: 6 or more miles 10+ km)
Ceiling: at least 12,000 feet AGL
Clouds: few clouds at 3000 feet AGL
Weather: no significant weather forecast for this period

AIRPORT MAP

 RUNWAY INFORMATION
Runway 12 Runway length 9186 ft Runway width 150 ft
Runway elevation 120 ft Runway displaced threshold 1007 ft Runway heading 117
Runway 30 Runway length 9186 ft Runway width 150 ft
Runway elevation 120 ft Runway displaced threshold 1188 ft Runway heading 297

 AIRPORT FREQUENCIES
Type APP Name APP Frequency 120.1 MHZ
Type ATIS Name ATIS Frequency 134.875 MHZ
Type GND Name GND Frequency 129.925 MHZ
Type TWR Name TWR Frequency 120.8 MHZ

 AIRPORT NEAR NAVIGATION AIDS
Type VOR-DME Name Bologna Frequency 112200 KHZ
Type NDB Name Bologna Frequency 413 KHZ



© 2020 - Royal Sky Service, All Right Reserved.